Time;durP1;ratioP1;P1;durP2;ratioP2;P2;SDS_P1;SDS_P2;PMS_P1;PMS_P2;Temp;Humidity;BMP_temperature;BMP_pressure;BME280_temperature;BME280_humidity;BME280_pressure;Samples;Min_cycle;Max_cycle;Signal;HPM_P1;HPM_P2
2022/07/22 00:01:10;;;;;;;3.33;1.20;;;;;;;22.02;50.34;98997.63;5088379;28;20027;-67
2022/07/22 00:03:36;;;;;;;3.55;1.20;;;;;;;22.00;50.37;98994.31;5088538;28;20028;-66
2022/07/22 00:06:01;;;;;;;2.63;1.20;;;;;;;22.00;50.40;99000.53;5087643;28;20048;-69
2022/07/22 00:08:27;;;;;;;1.67;1.30;;;;;;;22.00;50.33;99002.41;5088484;28;20029;-67
2022/07/22 00:10:53;;;;;;;3.85;1.20;;;;;;;22.02;50.32;99001.16;5089001;28;20096;-67
2022/07/22 00:13:18;;;;;;;4.00;1.30;;;;;;;22.02;50.24;99003.03;5080480;28;20144;-67
2022/07/22 00:15:44;;;;;;;1.83;1.20;;;;;;;21.98;50.39;98994.53;5086016;28;20020;-67
2022/07/22 00:18:09;;;;;;;8.18;1.20;;;;;;;21.99;50.30;98998.03;5080689;28;20300;-67
2022/07/22 00:20:35;;;;;;;3.55;1.35;;;;;;;21.97;50.35;99000.16;5089293;28;20054;-66
2022/07/22 00:23:00;;;;;;;1.77;1.10;;;;;;;21.93;50.57;98997.00;5086288;28;20013;-67
2022/07/22 00:25:28;;;;;;;3.95;1.95;;;;;;;21.90;50.34;98997.47;5089190;28;20032;-65
2022/07/22 00:27:53;;;;;;;9.27;1.40;;;;;;;21.93;50.39;98997.00;5088658;28;20209;-67
2022/07/22 00:30:18;;;;;;;3.75;1.38;;;;;;;21.92;50.50;98996.19;5089256;28;20020;-67
2022/07/22 00:32:44;;;;;;;4.03;1.17;;;;;;;21.89;50.64;99001.19;5088723;28;20025;-67
2022/07/22 00:35:11;;;;;;;1.25;0.85;;;;;;;21.86;50.70;98999.72;5088924;28;20020;-67
2022/07/22 00:37:37;;;;;;;3.25;1.13;;;;;;;21.89;50.65;98993.91;5087955;28;20061;-67
2022/07/22 00:40:03;;;;;;;3.20;1.55;;;;;;;21.90;50.65;98987.50;5088606;28;20039;-66
2022/07/22 00:42:28;;;;;;;2.78;1.00;;;;;;;21.92;50.52;98988.13;5088599;28;20024;-67
2022/07/22 00:44:54;;;;;;;4.20;2.33;;;;;;;21.93;50.46;98995.16;5088744;28;20028;-67
2022/07/22 00:47:19;;;;;;;6.90;1.20;;;;;;;21.92;50.60;98987.28;5069570;28;20017;-67
2022/07/22 00:49:45;;;;;;;1.83;1.20;;;;;;;21.91;50.62;98991.03;5087697;28;20096;-67
2022/07/22 00:52:11;;;;;;;3.17;1.30;;;;;;;21.91;50.58;98996.41;5088329;28;20032;-67
2022/07/22 00:54:37;;;;;;;2.83;1.20;;;;;;;21.89;50.59;98996.59;5088520;28;20024;-66
2022/07/22 00:57:02;;;;;;;3.58;1.20;;;;;;;21.85;50.67;98987.28;5088440;28;20023;-67
2022/07/22 00:59:28;;;;;;;1.58;1.10;;;;;;;21.86;50.61;98983.56;5088292;28;20016;-66
2022/07/22 01:01:53;;;;;;;2.40;0.90;;;;;;;21.86;50.48;98980.88;5088628;28;20103;-67
2022/07/22 01:04:19;;;;;;;3.25;1.40;;;;;;;21.88;50.58;98994.13;5088399;28;20210;-66
2022/07/22 01:06:45;;;;;;;2.38;1.00;;;;;;;21.87;50.52;99000.56;5088186;28;20100;-66
2022/07/22 01:09:12;;;;;;;2.53;1.40;;;;;;;21.87;50.58;98997.88;5088324;28;20043;-67
2022/07/22 01:11:38;;;;;;;1.88;1.25;;;;;;;21.88;50.25;99007.59;5088313;28;20133;-67
2022/07/22 01:14:04;;;;;;;1.75;1.13;;;;;;;21.85;50.67;99002.63;5088243;28;20047;-66
2022/07/22 01:16:29;;;;;;;4.07;1.10;;;;;;;21.84;50.69;99009.88;5088116;28;20020;-67
2022/07/22 01:18:55;;;;;;;1.30;0.85;;;;;;;21.84;50.69;99009.03;5088035;28;20087;-67
2022/07/22 01:21:21;;;;;;;2.88;1.25;;;;;;;21.84;50.72;99006.34;5088078;28;20025;-67
2022/07/22 01:23:47;;;;;;;2.13;0.90;;;;;;;21.83;50.69;99012.78;5087960;28;20074;-67
2022/07/22 01:26:14;;;;;;;3.28;1.40;;;;;;;21.79;50.80;99010.50;5087983;28;20119;-66
2022/07/22 01:28:40;;;;;;;2.42;1.00;;;;;;;21.78;50.86;99010.72;5087798;28;20087;-68
2022/07/22 01:31:07;;;;;;;2.50;1.40;;;;;;;21.78;50.74;99011.53;5087965;28;20062;-69
2022/07/22 01:33:33;;;;;;;3.65;1.45;;;;;;;21.79;50.77;99015.06;5087851;28;20149;-69
2022/07/22 01:35:59;;;;;;;1.02;0.85;;;;;;;21.78;50.80;99010.72;5087818;28;20044;-69
2022/07/22 01:38:25;;;;;;;7.50;1.13;;;;;;;21.77;50.79;99028.72;5087682;28;20073;-69
2022/07/22 01:40:50;;;;;;;4.80;1.48;;;;;;;21.75;50.86;99025.44;5087783;28;20024;-69
2022/07/22 01:43:17;;;;;;;5.18;1.80;;;;;;;21.75;50.73;99033.50;5087740;28;20089;-69
2022/07/22 01:45:47;;;;;;;6.63;1.30;;;;;;;21.78;50.70;99030.38;5087707;28;20032;-69
2022/07/22 01:48:14;;;;;;;4.38;1.48;;;;;;;21.79;50.79;99025.84;5087467;28;20032;-70
2022/07/22 01:50:40;;;;;;;1.08;0.98;;;;;;;21.79;50.80;99032.03;5087619;28;20025;-70
2022/07/22 01:53:06;;;;;;;3.28;1.20;;;;;;;21.74;50.95;99023.75;5086886;28;20032;-69
2022/07/22 01:55:32;;;;;;;5.10;1.30;;;;;;;21.71;51.05;99026.00;5087901;28;20084;-69
2022/07/22 01:57:58;;;;;;;2.15;1.10;;;;;;;21.65;51.28;99022.28;5087425;28;20026;-70
2022/07/22 02:00:23;;;;;;;1.80;1.10;;;;;;;21.63;51.33;99021.66;5087456;28;20039;-70
2022/07/22 02:02:49;;;;;;;4.63;1.17;;;;;;;21.62;51.34;99023.53;5087514;28;20028;-69
2022/07/22 02:05:14;;;;;;;3.83;1.67;;;;;;;21.63;51.23;99030.59;5087491;28;20020;-69
2022/07/22 02:07:40;;;;;;;6.53;1.50;;;;;;;21.64;51.21;99034.94;5087206;28;20043;-69
2022/07/22 02:10:06;;;;;;;2.92;1.55;;;;;;;21.65;51.17;99024.97;5087462;28;20032;-69
2022/07/22 02:12:32;;;;;;;4.20;1.80;;;;;;;21.67;51.18;99033.69;5087394;28;20024;-70
2022/07/22 02:14:57;;;;;;;2.10;1.27;;;;;;;21.64;51.35;99026.84;5087441;28;20082;-69
2022/07/22 02:17:24;;;;;;;2.83;1.40;;;;;;;21.64;51.19;99034.94;5087188;28;20028;-69
2022/07/22 02:19:50;;;;;;;2.03;1.40;;;;;;;21.61;51.37;99035.34;5087285;28;20020;-69
2022/07/22 02:22:15;;;;;;;2.83;1.23;;;;;;;21.59;51.50;99036.56;5087331;28;20040;-70
2022/07/22 02:24:41;;;;;;;3.70;1.10;;;;;;;21.59;51.33;99034.69;5087317;28;20040;-70
2022/07/22 02:27:07;;;;;;;4.72;1.67;;;;;;;21.56;51.45;99047.72;5087187;28;20024;-68
2022/07/22 02:29:33;;;;;;;2.35;1.10;;;;;;;21.56;51.48;99051.25;5087275;28;20020;-70
2022/07/22 02:31:58;;;;;;;3.55;1.10;;;;;;;21.58;51.30;99043.78;5087183;28;20036;-69
2022/07/22 02:34:24;;;;;;;2.22;1.30;;;;;;;21.63;51.33;99049.44;5087289;28;20038;-70
2022/07/22 02:36:50;;;;;;;4.78;1.30;;;;;;;21.66;51.20;99048.19;5087133;28;20028;-69
2022/07/22 02:39:16;;;;;;;3.38;1.20;;;;;;;21.66;51.30;99055.44;5087049;28;20180;-70
2022/07/22 02:41:41;;;;;;;2.92;1.08;;;;;;;21.61;51.51;99048.00;5087028;28;20047;-69
2022/07/22 02:44:06;;;;;;;2.03;1.38;;;;;;;21.60;51.56;99051.72;5087163;28;20127;-69
2022/07/22 02:46:32;;;;;;;3.38;1.30;;;;;;;21.60;51.51;99055.22;5087111;28;20024;-70
2022/07/22 02:48:58;;;;;;;2.35;1.38;;;;;;;21.66;51.36;99050.06;5086819;28;20217;-69
2022/07/22 02:51:23;;;;;;;4.38;1.30;;;;;;;21.62;51.48;99053.16;5087110;28;20028;-70
2022/07/22 02:53:49;;;;;;;5.15;1.85;;;;;;;21.67;51.42;99059.78;5086977;28;20040;-70
2022/07/22 02:56:15;;;;;;;1.65;1.27;;;;;;;21.69;51.40;99057.72;5086997;28;20074;-70
2022/07/22 02:58:42;;;;;;;4.50;1.50;;;;;;;21.71;51.39;99059.16;5086728;28;20237;-69
2022/07/22 03:01:08;;;;;;;2.53;1.13;;;;;;;21.76;51.35;99080.09;5086876;28;20226;-69
2022/07/22 03:03:33;;;;;;;1.98;1.30;;;;;;;21.76;51.22;99069.31;5088912;28;20039;-70
2022/07/22 03:05:59;;;;;;;1.17;1.02;;;;;;;21.73;51.13;99072.41;5090463;28;20024;-69
2022/07/22 03:08:25;;;;;;;5.63;1.73;;;;;;;21.74;51.23;99093.78;5090614;28;20029;-69
2022/07/22 03:10:51;;;;;;;1.50;1.05;;;;;;;21.72;51.21;99084.22;5090580;28;20055;-69
2022/07/22 03:13:16;;;;;;;3.88;1.63;;;;;;;21.62;51.54;99074.69;5090502;28;20142;-70
2022/07/22 03:15:42;;;;;;;1.77;1.10;;;;;;;21.64;51.39;99075.31;5090446;28;20024;-69
2022/07/22 03:18:07;;;;;;;2.55;1.60;;;;;;;21.66;51.48;99077.78;5090295;28;20036;-68
2022/07/22 03:20:33;;;;;;;6.38;1.20;;;;;;;21.78;51.45;99078.03;5090702;28;20024;-69
2022/07/22 03:22:58;;;;;;;3.80;1.10;;;;;;;21.93;51.11;99081.34;5090317;28;20142;-69
2022/07/22 03:25:24;;;;;;;4.32;1.40;;;;;;;22.13;50.79;99088.59;5090352;28;20024;-69
2022/07/22 03:27:50;;;;;;;2.38;1.27;;;;;;;22.42;50.27;99096.50;5090149;28;20020;-69
2022/07/22 03:30:16;;;;;;;4.05;1.73;;;;;;;22.64;49.82;99102.47;5090265;28;20024;-69
2022/07/22 03:32:44;;;;;;;2.13;1.25;;;;;;;22.70;49.85;99097.06;5090158;28;20032;-69
2022/07/22 03:35:11;;;;;;;2.35;1.20;;;;;;;22.74;49.67;99097.47;5090073;28;20032;-70
2022/07/22 03:37:37;;;;;;;4.90;1.50;;;;;;;22.83;49.56;99100.75;5089832;28;20254;-69
2022/07/22 03:40:03;;;;;;;2.03;1.58;;;;;;;22.79;49.71;99108.47;5090359;28;20056;-69
2022/07/22 03:42:28;;;;;;;4.45;1.65;;;;;;;22.82;49.45;99109.91;5089988;28;20024;-68
2022/07/22 03:44:54;;;;;;;2.75;1.60;;;;;;;22.92;49.16;99114.84;5090011;28;20043;-69
2022/07/22 03:47:22;;;;;;;1.77;1.02;;;;;;;22.97;49.20;99106.97;5089910;28;20095;-69
2022/07/22 03:49:48;;;;;;;2.63;1.73;;;;;;;22.97;49.13;99117.75;5089677;28;20013;-68
2022/07/22 03:52:14;;;;;;;2.17;1.30;;;;;;;22.88;49.58;99119.00;5089795;28;20031;-68
2022/07/22 03:54:44;;;;;;;3.80;1.20;;;;;;;22.92;49.57;99117.56;5089773;28;20123;-69
2022/07/22 03:57:10;;;;;;;2.72;1.40;;;;;;;22.96;49.39;99126.88;5089680;28;20240;-70
2022/07/22 03:59:36;;;;;;;2.80;1.30;;;;;;;22.89;49.32;99120.66;5080814;28;20125;-69
2022/07/22 04:02:02;;;;;;;1.33;0.95;;;;;;;22.78;49.66;99125.69;5069577;28;20033;-70
2022/07/22 04:04:28;;;;;;;2.38;1.08;;;;;;;22.74;49.60;99124.44;5069823;28;20274;-69
2022/07/22 04:06:53;;;;;;;1.45;1.20;;;;;;;22.71;49.97;99124.88;5069311;28;20036;-69
2022/07/22 04:09:19;;;;;;;6.78;1.40;;;;;;;22.72;50.13;99126.50;5069447;28;20036;-68
2022/07/22 04:11:45;;;;;;;4.10;1.20;;;;;;;22.75;50.11;99136.88;5069329;28;20268;-69
2022/07/22 04:14:10;;;;;;;2.47;1.50;;;;;;;22.77;49.70;99124.00;5068858;28;20021;-69
2022/07/22 04:16:36;;;;;;;4.97;1.77;;;;;;;22.82;49.62;99126.91;5069250;28;20036;-69
2022/07/22 04:19:02;;;;;;;2.47;1.10;;;;;;;22.78;50.05;99130.25;5069288;28;20084;-69
2022/07/22 04:21:28;;;;;;;2.97;1.02;;;;;;;22.70;49.85;99123.22;5069282;28;20123;-69
2022/07/22 04:23:53;;;;;;;1.85;1.02;;;;;;;22.69;49.97;99129.66;5069088;28;20264;-70
2022/07/22 04:26:19;;;;;;;1.83;1.00;;;;;;;22.74;49.81;99127.13;5069010;28;20056;-69
2022/07/22 04:28:45;;;;;;;2.13;1.08;;;;;;;22.82;50.00;99137.72;5087893;28;20125;-69
2022/07/22 04:31:10;;;;;;;4.72;1.02;;;;;;;22.86;49.58;99133.56;5089046;28;20162;-70
2022/07/22 04:33:36;;;;;;;4.22;1.20;;;;;;;22.89;49.60;99140.38;5089125;28;20104;-70
2022/07/22 04:36:01;;;;;;;4.10;1.40;;;;;;;23.11;49.27;99140.94;5089027;28;20277;-70
2022/07/22 04:38:27;;;;;;;3.70;1.60;;;;;;;23.45;48.67;99148.94;5088845;28;20032;-69
2022/07/22 04:40:53;;;;;;;4.55;2.13;;;;;;;23.82;47.91;99145.63;5088912;28;20141;-69
2022/07/22 04:43:18;;;;;;;2.97;1.65;;;;;;;24.20;47.19;99142.06;5088717;28;20024;-69
2022/07/22 04:45:44;;;;;;;3.10;1.10;;;;;;;24.51;46.46;99143.03;5088725;28;20024;-69
2022/07/22 04:48:09;;;;;;;1.60;0.98;;;;;;;24.68;46.06;99141.44;5088478;28;20078;-69
2022/07/22 04:50:37;;;;;;;1.60;1.20;;;;;;;24.87;45.46;99136.06;5088697;28;20092;-69
2022/07/22 04:53:03;;;;;;;2.42;1.17;;;;;;;25.11;45.05;99133.50;5088535;28;20217;-68
2022/07/22 04:55:28;;;;;;;4.78;1.23;;;;;;;25.24;45.05;99149.59;5088610;28;20024;-68
2022/07/22 04:57:54;;;;;;;2.15;1.20;;;;;;;25.45;44.94;99147.50;5088376;28;20028;-69
2022/07/22 05:00:21;;;;;;;4.57;1.38;;;;;;;25.62;44.10;99155.00;5073561;28;20092;-68
2022/07/22 05:02:47;;;;;;;5.43;1.55;;;;;;;25.63;44.13;99153.94;5068332;28;20032;-69
2022/07/22 05:05:12;;;;;;;6.40;1.20;;;;;;;25.61;43.90;99159.56;5068378;28;20080;-67
2022/07/22 05:07:38;;;;;;;3.97;1.13;;;;;;;25.68;43.98;99163.03;5068092;28;20090;-67
2022/07/22 05:10:04;;;;;;;2.55;1.05;;;;;;;25.87;43.61;99160.28;5068333;28;20052;-68
2022/07/22 05:12:29;;;;;;;4.60;1.02;;;;;;;25.99;43.26;99161.13;5068220;28;20150;-68
2022/07/22 05:14:55;;;;;;;1.30;1.10;;;;;;;26.05;43.11;99167.50;5068188;28;20044;-68
2022/07/22 05:17:20;;;;;;;2.70;1.80;;;;;;;26.19;42.78;99165.44;5063999;28;20016;-69
2022/07/22 05:19:46;;;;;;;5.00;1.23;;;;;;;26.23;42.77;99166.63;5088022;28;20012;-69
2022/07/22 05:22:12;;;;;;;4.68;1.20;;;;;;;26.32;42.60;99169.81;5088055;28;20035;-69
2022/07/22 05:24:37;;;;;;;3.17;1.45;;;;;;;26.30;42.49;99166.53;5088217;28;20042;-68
2022/07/22 05:27:03;;;;;;;3.83;1.30;;;;;;;26.27;42.48;99165.09;5085135;28;20097;-68
2022/07/22 05:29:29;;;;;;;3.72;1.58;;;;;;;26.31;42.46;99173.59;5087863;28;20016;-68
2022/07/22 05:31:54;;;;;;;7.22;2.17;;;;;;;26.33;42.33;99166.06;5087805;28;20036;-68
2022/07/22 05:34:20;;;;;;;2.97;1.13;;;;;;;26.34;42.45;99167.72;5087798;28;20067;-69
2022/07/22 05:36:45;;;;;;;3.40;1.42;;;;;;;26.44;42.26;99165.25;5073170;28;20037;-69
2022/07/22 05:39:11;;;;;;;3.85;1.05;;;;;;;26.49;42.12;99172.66;5081362;28;20024;-68
2022/07/22 05:41:37;;;;;;;3.10;1.00;;;;;;;26.55;42.19;99176.31;5087650;28;20100;-69
2022/07/22 05:44:03;;;;;;;1.75;1.20;;;;;;;26.56;42.05;99169.84;5070273;28;20204;-68
2022/07/22 05:46:29;;;;;;;3.10;1.30;;;;;;;26.50;42.19;99177.03;5087652;28;20047;-68
2022/07/22 05:48:54;;;;;;;2.20;1.10;;;;;;;26.47;42.27;99181.06;5087382;28;20020;-69
2022/07/22 05:51:20;;;;;;;4.57;1.45;;;;;;;26.40;42.18;99183.03;5087559;28;20083;-69
2022/07/22 05:53:46;;;;;;;1.90;1.15;;;;;;;26.30;42.28;99180.91;5087404;28;20056;-68
2022/07/22 05:56:11;;;;;;;6.07;1.25;;;;;;;26.27;42.31;99189.53;5087639;28;20028;-69
2022/07/22 05:58:38;;;;;;;1.90;1.08;;;;;;;26.36;42.21;99176.44;5087234;28;20137;-69
2022/07/22 06:01:04;;;;;;;2.78;1.20;;;;;;;26.23;42.72;99174.75;5087546;28;20192;-70
2022/07/22 06:03:29;;;;;;;4.43;1.67;;;;;;;26.30;42.62;99174.66;5087328;28;20028;-70
2022/07/22 06:05:55;;;;;;;3.72;1.20;;;;;;;26.34;42.39;99175.84;5087420;28;20305;-69
2022/07/22 06:08:20;;;;;;;2.53;1.23;;;;;;;26.40;42.53;99185.75;5087284;28;20169;-69
2022/07/22 06:10:46;;;;;;;2.85;1.00;;;;;;;26.32;42.34;99181.50;5087325;28;20237;-70
2022/07/22 06:13:11;;;;;;;3.90;1.20;;;;;;;26.13;42.74;99180.75;5087313;28;20024;-69
2022/07/22 06:15:37;;;;;;;4.63;1.40;;;;;;;26.00;43.11;99175.50;5087323;28;20020;-70
2022/07/22 06:18:02;;;;;;;7.57;1.75;;;;;;;26.00;43.06;99191.75;5087263;28;20020;-70
2022/07/22 06:20:28;;;;;;;4.18;1.08;;;;;;;25.80;43.45;99186.63;5087410;28;20096;-70
2022/07/22 06:22:53;;;;;;;3.38;1.33;;;;;;;25.71;43.71;99186.97;5087278;28;20069;-69
2022/07/22 06:25:18;;;;;;;4.95;1.23;;;;;;;25.62;43.79;99188.31;5087319;28;20074;-69
2022/07/22 06:27:44;;;;;;;1.98;1.13;;;;;;;25.51;44.34;99179.09;5087118;28;20115;-70
2022/07/22 06:30:10;;;;;;;4.47;1.42;;;;;;;25.41;44.35;99184.19;5087162;28;20156;-68
2022/07/22 06:32:36;;;;;;;1.80;1.40;;;;;;;25.40;44.43;99185.22;5087110;28;20047;-69
2022/07/22 06:35:02;;;;;;;6.72;1.23;;;;;;;25.35;44.67;99185.91;5086871;28;20028;-69
2022/07/22 06:37:28;;;;;;;10.57;1.35;;;;;;;25.29;44.59;99184.94;5087279;28;20039;-68
2022/07/22 06:39:53;;;;;;;2.97;1.10;;;;;;;25.26;44.55;99179.97;5091181;28;20021;-68
2022/07/22 06:42:19;;;;;;;2.25;1.25;;;;;;;25.17;44.91;99197.59;5091122;28;20192;-69
2022/07/22 06:44:44;;;;;;;5.10;1.35;;;;;;;25.08;45.01;99190.78;5091145;28;20122;-69
2022/07/22 06:47:10;;;;;;;2.78;1.10;;;;;;;25.02;45.64;99197.13;5090988;28;20025;-69
2022/07/22 06:49:35;;;;;;;3.60;1.10;;;;;;;25.05;45.08;99200.19;5090832;28;20035;-68
2022/07/22 06:52:01;;;;;;;2.67;1.13;;;;;;;24.94;45.53;99196.34;5090929;28;20052;-68
2022/07/22 06:54:27;;;;;;;2.90;1.73;;;;;;;24.94;44.97;99188.22;5091000;28;20095;-69
2022/07/22 06:56:53;;;;;;;9.30;1.30;;;;;;;24.91;45.12;99187.84;5091156;28;20174;-69
2022/07/22 06:59:18;;;;;;;4.47;1.20;;;;;;;24.92;44.80;99197.63;5073084;28;20019;-69
2022/07/22 07:01:44;;;;;;;2.38;1.08;;;;;;;24.94;45.08;99190.13;5090639;28;20024;-70
2022/07/22 07:04:10;;;;;;;6.47;1.33;;;;;;;24.87;45.12;99200.16;5090743;28;20035;-69
2022/07/22 07:06:35;;;;;;;2.45;1.25;;;;;;;24.72;45.59;99192.41;5090516;28;20044;-69
2022/07/22 07:09:01;;;;;;;8.88;1.33;;;;;;;24.66;45.43;99186.00;5090637;28;20012;-69
2022/07/22 07:11:27;;;;;;;1.67;0.90;;;;;;;24.60;45.54;99194.97;5090595;28;20032;-69
2022/07/22 07:13:52;;;;;;;3.13;1.08;;;;;;;24.58;45.44;99187.09;5090251;28;20149;-69
2022/07/22 07:16:18;;;;;;;2.38;1.30;;;;;;;24.54;45.69;99194.00;5090428;28;20095;-69
2022/07/22 07:18:43;;;;;;;2.63;1.48;;;;;;;24.61;45.80;99197.47;5090330;28;20020;-70
2022/07/22 07:21:09;;;;;;;3.85;1.20;;;;;;;24.72;45.90;99193.22;5090348;28;20081;-69
2022/07/22 07:23:34;;;;;;;3.10;1.35;;;;;;;24.75;45.51;99200.91;5090539;28;20045;-69
2022/07/22 07:26:00;;;;;;;2.65;1.00;;;;;;;24.77;45.80;99198.00;5090261;28;20028;-70
2022/07/22 07:28:26;;;;;;;3.50;1.20;;;;;;;24.75;45.66;99202.81;5090143;28;20033;-68
2022/07/22 07:30:51;;;;;;;1.90;0.93;;;;;;;24.73;45.35;99204.91;5090226;28;20021;-68
2022/07/22 07:33:17;;;;;;;4.50;1.10;;;;;;;24.76;45.28;99199.03;5090216;28;20077;-68
2022/07/22 07:35:42;;;;;;;2.35;1.15;;;;;;;24.71;45.53;99196.16;5090012;28;20024;-67
2022/07/22 07:38:08;;;;;;;5.30;1.10;;;;;;;24.71;45.34;99205.09;5089952;28;20082;-67
2022/07/22 07:40:34;;;;;;;4.53;1.30;;;;;;;24.71;45.16;99205.09;5090026;28;20265;-68
2022/07/22 07:42:59;;;;;;;4.13;1.30;;;;;;;24.69;45.30;99201.78;5089911;28;20027;-69
2022/07/22 07:45:25;;;;;;;3.75;1.40;;;;;;;24.68;44.98;99198.22;5089996;28;20032;-69
2022/07/22 07:47:50;;;;;;;4.85;1.30;;;;;;;24.65;45.13;99204.06;5089668;28;20024;-69
2022/07/22 07:50:16;;;;;;;1.73;1.05;;;;;;;24.60;45.15;99201.22;5071367;28;20040;-69
2022/07/22 07:52:44;;;;;;;4.15;1.20;;;;;;;24.61;45.30;99207.44;5089837;28;20137;-68
2022/07/22 07:55:10;;;;;;;3.72;1.10;;;;;;;24.65;45.33;99204.06;5089801;28;20036;-69
2022/07/22 07:57:36;;;;;;;2.72;1.50;;;;;;;24.74;44.88;99201.97;5089699;28;20229;-67
2022/07/22 08:00:05;;;;;;;7.18;1.33;;;;;;;24.80;45.16;99195.66;5077132;28;20222;-68
2022/07/22 08:02:31;;;;;;;4.93;1.30;;;;;;;24.85;44.92;99207.72;5069415;28;20039;-68
2022/07/22 08:04:56;;;;;;;2.00;1.50;;;;;;;24.87;44.64;99206.44;5069431;28;20100;-67
2022/07/22 08:07:21;;;;;;;4.13;1.10;;;;;;;24.90;44.81;99194.31;5069322;28;20024;-68
2022/07/22 08:09:47;;;;;;;3.08;0.90;;;;;;;24.92;44.41;99206.59;5069370;28;20021;-69
2022/07/22 08:12:12;;;;;;;3.38;1.20;;;;;;;24.93;44.28;99194.69;5069406;28;20193;-69
2022/07/22 08:14:38;;;;;;;2.70;1.00;;;;;;;24.97;44.31;99211.34;5069663;28;20043;-69
2022/07/22 08:17:04;;;;;;;1.83;1.10;;;;;;;24.99;43.99;99203.81;5078926;28;20102;-69
2022/07/22 08:19:29;;;;;;;2.92;0.90;;;;;;;25.03;44.08;99210.41;5089227;28;20055;-68
2022/07/22 08:21:54;;;;;;;2.03;1.13;;;;;;;25.07;44.05;99208.94;5089251;28;20032;-68
2022/07/22 08:24:20;;;;;;;4.30;0.95;;;;;;;25.06;44.04;99203.75;5089314;28;20020;-67
2022/07/22 08:26:45;;;;;;;1.48;0.75;;;;;;;24.94;43.93;99211.78;5089171;28;20042;-68
2022/07/22 08:29:11;;;;;;;3.35;1.20;;;;;;;24.80;44.15;99209.19;5089213;28;20023;-68
2022/07/22 08:31:38;;;;;;;2.38;1.23;;;;;;;24.81;44.33;99212.72;5088910;28;20020;-69
2022/07/22 08:34:04;;;;;;;2.70;1.00;;;;;;;24.90;44.00;99213.25;5089076;28;20016;-68
2022/07/22 08:36:30;;;;;;;2.38;1.30;;;;;;;24.97;43.88;99214.03;5089003;28;20222;-67
2022/07/22 08:38:56;;;;;;;9.68;1.10;;;;;;;25.01;43.39;99219.81;5088634;28;20039;-68
2022/07/22 08:41:23;;;;;;;2.45;1.42;;;;;;;25.01;43.57;99209.00;5088912;28;20024;-68
2022/07/22 08:43:49;;;;;;;2.35;1.13;;;;;;;25.02;43.83;99216.06;5088589;28;20024;-68
2022/07/22 08:46:15;;;;;;;2.03;1.00;;;;;;;25.03;43.46;99210.41;5088640;28;20020;-68
2022/07/22 08:48:41;;;;;;;5.43;1.17;;;;;;;25.03;43.36;99220.44;5088421;28;20041;-68
2022/07/22 08:51:07;;;;;;;2.55;1.45;;;;;;;25.06;43.36;99215.38;5088505;28;20036;-67
2022/07/22 08:53:33;;;;;;;5.65;1.10;;;;;;;25.11;43.30;99226.38;5088402;28;20029;-67
2022/07/22 08:55:58;;;;;;;2.78;1.10;;;;;;;25.20;43.19;99213.38;5088511;28;20044;-68
2022/07/22 08:58:25;;;;;;;1.77;1.27;;;;;;;25.26;43.22;99225.19;5088506;28;20020;-69
2022/07/22 09:01:14;;;;;;;3.25;1.20;;;;;;;25.30;42.73;99226.38;5069116;28;20039;-68
2022/07/22 09:03:49;;;;;;;2.65;1.20;;;;;;;25.26;42.48;99230.59;5084008;28;20081;-68
2022/07/22 09:06:15;;;;;;;1.60;0.90;;;;;;;25.18;42.72;99220.91;5082772;28;20020;-67
2022/07/22 09:08:52;;;;;;;4.35;1.00;;;;;;;25.19;43.03;99229.84;5079019;28;20028;-67
2022/07/22 09:11:19;;;;;;;2.78;1.02;;;;;;;25.24;42.74;99230.00;5085738;28;20036;-67
2022/07/22 09:13:46;;;;;;;2.08;1.17;;;;;;;25.27;42.65;99229.56;5086338;28;20233;-67
2022/07/22 09:16:11;;;;;;;2.42;0.98;;;;;;;25.26;42.17;99236.84;5087528;28;20035;-67
2022/07/22 09:18:54;;;;;;;2.75;1.10;;;;;;;25.29;42.04;99238.28;5085468;28;20025;-69
2022/07/22 09:21:21;;;;;;;4.85;1.23;;;;;;;25.31;42.08;99228.03;5084182;28;20123;-70
2022/07/22 09:23:46;;;;;;;2.22;1.00;;;;;;;25.26;41.91;99239.53;5083080;28;20032;-67
2022/07/22 09:26:33;;;;;;;3.03;1.65;;;;;;;25.20;42.35;99231.50;5086853;28;20032;-66
2022/07/22 09:29:00;;;;;;;3.35;1.17;;;;;;;25.20;42.34;99236.91;5081339;28;20028;-66
2022/07/22 09:31:30;;;;;;;3.72;1.30;;;;;;;25.26;42.30;99230.59;5077958;28;20065;-66
2022/07/22 09:33:57;;;;;;;2.40;1.20;;;;;;;25.31;42.11;99241.56;5087359;28;20035;-67
2022/07/22 09:36:23;;;;;;;2.97;0.90;;;;;;;25.30;42.15;99237.19;5078253;28;20016;-67
2022/07/22 09:38:49;;;;;;;3.28;0.82;;;;;;;25.28;41.88;99242.03;5085357;28;20025;-67
2022/07/22 09:41:15;;;;;;;2.03;0.80;;;;;;;25.26;41.82;99236.84;5086252;28;20245;-67
2022/07/22 09:43:41;;;;;;;1.25;0.85;;;;;;;25.24;42.00;99238.94;5085745;28;20025;-67
2022/07/22 09:46:07;;;;;;;1.90;1.17;;;;;;;25.26;41.92;99227.91;5079682;28;20024;-67
2022/07/22 09:48:32;;;;;;;2.92;0.82;;;;;;;25.26;41.82;99249.56;5086849;28;20024;-67
2022/07/22 09:50:58;;;;;;;2.78;1.27;;;;;;;25.24;42.01;99238.94;5086936;28;20099;-65
2022/07/22 09:53:30;;;;;;;4.40;1.20;;;;;;;25.26;41.93;99242.25;5085700;28;20032;-68
2022/07/22 09:56:00;;;;;;;2.97;1.50;;;;;;;25.29;41.24;99241.81;5064836;28;20141;-68
2022/07/22 09:58:26;;;;;;;1.97;1.10;;;;;;;25.37;41.44;99243.38;5086639;28;20020;-68
2022/07/22 10:00:53;;;;;;;1.73;0.90;;;;;;;25.35;41.28;99234.66;5082309;28;20038;-67
2022/07/22 10:03:26;;;;;;;1.88;0.82;;;;;;;25.39;40.89;99237.72;5085743;28;20024;-67
2022/07/22 10:05:52;;;;;;;3.33;1.38;;;;;;;25.41;41.02;99236.50;5083240;28;20038;-67
2022/07/22 10:08:19;;;;;;;4.55;1.30;;;;;;;25.46;41.44;99237.69;5086034;28;20323;-68
2022/07/22 10:10:44;;;;;;;1.95;1.15;;;;;;;25.41;41.34;99241.94;5086506;28;20052;-67
2022/07/22 10:13:10;;;;;;;5.40;1.20;;;;;;;25.42;41.68;99240.03;5086318;28;20070;-69
2022/07/22 10:15:37;;;;;;;5.63;1.10;;;;;;;25.46;41.72;99235.81;5085872;28;20024;-67
2022/07/22 10:18:17;;;;;;;11.23;1.70;;;;;;;25.46;41.60;99235.81;5086277;28;20020;-68
2022/07/22 10:20:42;;;;;;;3.75;1.20;;;;;;;25.45;41.22;99253.13;5086000;28;20028;-67
2022/07/22 10:23:10;;;;;;;3.17;1.10;;;;;;;25.45;41.55;99250.41;5087091;28;20028;-68
2022/07/22 10:25:53;;;;;;;4.43;1.20;;;;;;;25.43;41.35;99249.81;5069945;28;20013;-68
2022/07/22 10:28:28;;;;;;;3.38;0.82;;;;;;;25.42;41.36;99253.56;5087040;28;20240;-68
2022/07/22 10:31:14;;;;;;;5.75;1.00;;;;;;;25.39;41.42;99254.81;5087229;28;20032;-67
2022/07/22 10:33:40;;;;;;;3.05;1.00;;;;;;;25.38;41.45;99250.47;5073110;28;20095;-67
2022/07/22 10:36:06;;;;;;;5.43;0.93;;;;;;;25.40;41.33;99252.94;5087143;28;20042;-68
2022/07/22 10:38:32;;;;;;;3.53;1.08;;;;;;;25.40;41.41;99250.22;5087032;28;20044;-67
2022/07/22 10:41:03;;;;;;;2.42;1.30;;;;;;;25.40;41.22;99253.78;5069626;28;20200;-67
2022/07/22 10:43:28;;;;;;;3.10;1.05;;;;;;;25.36;41.39;99249.03;5087158;28;20220;-67
2022/07/22 10:45:58;;;;;;;4.18;0.90;;;;;;;25.34;41.77;99248.44;5087066;28;20024;-68
2022/07/22 10:48:33;;;;;;;1.77;1.38;;;;;;;25.37;41.49;99253.38;5081897;28;20023;-68
2022/07/22 10:51:06;;;;;;;6.10;1.10;;;;;;;25.43;41.56;99244.41;5067000;28;20024;-68
2022/07/22 10:53:40;;;;;;;1.63;1.02;;;;;;;25.46;41.58;99262.91;5066934;28;20083;-67
2022/07/22 10:56:33;;;;;;;2.67;1.58;;;;;;;25.46;41.17;99257.50;5066756;28;20036;-67
2022/07/22 10:59:07;;;;;;;1.10;0.90;;;;;;;25.44;41.35;99265.00;5070355;28;20012;-68
2022/07/22 11:01:33;;;;;;;5.47;1.10;;;;;;;25.41;41.58;99262.72;5086952;28;20037;-67
2022/07/22 11:04:15;;;;;;;3.15;1.70;;;;;;;25.41;41.55;99254.59;5087105;28;20088;-68
2022/07/22 11:06:41;;;;;;;3.85;1.60;;;;;;;25.41;41.35;99260.00;5086742;28;20089;-67
2022/07/22 11:09:09;;;;;;;4.50;1.30;;;;;;;25.44;41.21;99254.19;5086957;28;20028;-68
2022/07/22 11:11:35;;;;;;;2.50;1.23;;;;;;;25.49;40.91;99258.91;5086706;28;20129;-68
2022/07/22 11:14:01;;;;;;;2.22;1.15;;;;;;;25.53;40.86;99254.72;5086805;28;20027;-68
2022/07/22 11:16:28;;;;;;;5.32;0.95;;;;;;;25.54;40.92;99253.66;5086753;28;20035;-67
2022/07/22 11:18:56;;;;;;;2.70;1.40;;;;;;;25.51;40.88;99244.09;5069099;28;20121;-67
2022/07/22 11:21:28;;;;;;;2.17;1.13;;;;;;;25.48;41.19;99252.69;5086589;28;20028;-67
2022/07/22 11:23:56;;;;;;;3.90;1.23;;;;;;;25.44;41.38;99246.88;5086716;28;20044;-69
2022/07/22 11:26:33;;;;;;;4.68;0.90;;;;;;;25.42;41.12;99246.28;5089952;28;20015;-67
2022/07/22 11:28:58;;;;;;;2.85;1.10;;;;;;;25.42;41.15;99246.28;5090223;28;20047;-68
2022/07/22 11:31:24;;;;;;;3.60;0.90;;;;;;;25.48;41.02;99254.53;5090159;28;20119;-67